KBAX

Huron County Memorial Airport

Bad Axe, Michigan, USA
METAR KBAX 180835Z AUTO 18003KT 3SM BR SCT004 BKN014 OVC023 M03/M03 A2994 RMK AO2 T10301035
Observed Flight Rules
Dec-18 @ 08:35 UTC (20 minutes ago) Marginal Visual Flight Rules
Wind Visibility Clouds Conditions
180° at 3 knots 3 miles
  • Scattered at 400' AGL
  • Broken at 1,400' AGL
  • Overcast at 2,300' AGL
  • Mist
Temperatures Readings
Current -3°C / 27°F
Dewpoint -4°C / 25°F
Humidity 93%
Altimeter 29.94" Hg
Pressure 1014 hPa
Elevation 234
METAR KBAX 180835Z AUTO 18003KT 3SM BR SCT004 BKN014 OVC023 M03/M03 A2994 RMK AO2 T10301035
Observed Flight Rules
Dec-18 @ 08:35 UTC
(20 minutes ago)
MVFR
Wind Visibility
180° at 3 knots 3 miles
Clouds
  • Scattered at 400' AGL
  • Broken at 1,400' AGL
  • Overcast at 2,300' AGL
Conditions
  • Mist
Temperature Dewpoint
-3°C / 27°F -4°C / 25°F
Humidity Altimeter Pressure
93% 29.94" Hg 1014 hPa